Terminal Aerodrome Forecast
Issued by NWS

Current Version | Previous Version | Text Only | Print | Product List | Glossary On
Versions: 1 2 3 4 5 6 7 8 9 10 11 12 13 14 15 16 17
000
FTUS43 KILX 061700 AAA
TAFBMI
TAF AMD
KBMI 061746Z 0618/0718 19016G24KT P6SM BKN090
     FM070000 22012KT P6SM SCT250
     FM071400 23016G24KT P6SM SCT100=

USA.gov is the U.S. government's official web portal to all federal, state and local government web resources and services.